createdAt,value
2019-03-06T00:01:25.499Z,89.70
2019-03-06T00:05:30.239Z,89.70
2019-03-06T00:09:35.081Z,89.90
2019-03-06T00:13:42.977Z,90.30
2019-03-06T00:17:47.408Z,90.00
2019-03-06T00:21:52.404Z,90.00
2019-03-06T00:26:00.053Z,89.70
2019-03-06T00:30:05.229Z,89.40
2019-03-06T00:34:13.225Z,89.50
2019-03-06T00:38:18.112Z,89.20
2019-03-06T00:42:23.313Z,89.60
2019-03-06T00:46:27.831Z,89.30
2019-03-06T00:50:33.302Z,88.50
2019-03-06T00:54:38.039Z,88.50
2019-03-06T00:58:42.427Z,88.00
2019-03-06T01:02:47.021Z,87.50
2019-03-06T01:06:51.576Z,87.50
2019-03-06T01:10:56.480Z,87.60
2019-03-06T01:15:01.420Z,87.10
2019-03-06T01:19:05.879Z,86.70
2019-03-06T01:23:10.347Z,86.80
2019-03-06T01:27:15.103Z,87.10
2019-03-06T01:31:19.949Z,86.50
2019-03-06T01:35:37.137Z,87.10
2019-03-06T01:40:13.380Z,87.50
2019-03-06T01:44:25.177Z,88.00
2019-03-06T01:48:29.947Z,88.20
2019-03-06T01:52:34.402Z,88.30
2019-03-06T01:56:39.031Z,88.20
2019-03-06T02:00:43.897Z,88.30
2019-03-06T02:04:48.593Z,88.10
2019-03-06T02:08:53.141Z,88.40
2019-03-06T02:12:57.647Z,88.70
2019-03-06T02:17:02.372Z,88.80
2019-03-06T02:21:06.772Z,89.00
2019-03-06T02:25:11.179Z,89.10
2019-03-06T02:29:15.590Z,89.20
2019-03-06T02:33:20.479Z,89.20
2019-03-06T02:37:25.384Z,89.10
2019-03-06T02:41:30.634Z,89.10
2019-03-06T02:45:35.050Z,89.50
2019-03-06T02:49:40.659Z,89.70
2019-03-06T02:53:45.335Z,89.70
2019-03-06T02:57:55.432Z,89.70
2019-03-06T03:02:17.946Z,89.80
2019-03-06T03:06:27.904Z,90.20
2019-03-06T03:10:32.375Z,89.70
2019-03-06T03:14:37.487Z,90.00
2019-03-06T03:18:42.671Z,90.00
2019-03-06T03:22:47.182Z,89.80
2019-03-06T03:26:51.957Z,89.80
2019-03-06T03:30:56.789Z,90.10
2019-03-06T03:35:01.658Z,90.00
2019-03-06T03:39:07.807Z,90.10
2019-03-06T03:43:12.816Z,90.30
2019-03-06T03:47:17.399Z,90.40
2019-03-06T03:51:21.955Z,90.70
2019-03-06T03:55:27.253Z,90.90
2019-03-06T03:59:32.317Z,90.70
2019-03-06T04:03:37.021Z,90.90
2019-03-06T04:07:41.431Z,91.00
2019-03-06T04:11:46.238Z,91.00
2019-03-06T04:15:51.398Z,91.00
2019-03-06T04:19:56.531Z,90.60
2019-03-06T04:24:01.307Z,90.60
2019-03-06T04:28:05.700Z,90.80
2019-03-06T04:32:10.115Z,90.90
2019-03-06T04:36:15.374Z,91.10
2019-03-06T04:40:20.123Z,91.40
2019-03-06T04:44:24.885Z,91.70
2019-03-06T04:48:29.720Z,92.10
2019-03-06T04:52:34.139Z,91.90
2019-03-06T04:56:38.904Z,91.70
2019-03-06T05:00:43.704Z,91.80
2019-03-06T05:04:49.279Z,91.70
2019-03-06T05:08:53.664Z,91.80
2019-03-06T05:12:58.527Z,91.80
2019-03-06T05:17:11.599Z,91.70
2019-03-06T05:21:16.252Z,91.80
2019-03-06T05:25:20.983Z,91.90
2019-03-06T05:29:25.460Z,91.60
2019-03-06T05:33:29.948Z,91.60
2019-03-06T05:38:00.878Z,92.00
2019-03-06T05:42:05.365Z,92.40
2019-03-06T05:46:10.191Z,92.70
2019-03-06T05:50:15.264Z,92.90
2019-03-06T05:54:20.679Z,93.00
2019-03-06T05:58:25.993Z,93.00
2019-03-06T06:02:30.829Z,93.00
2019-03-06T06:06:35.362Z,92.90
2019-03-06T06:10:40.154Z,92.80
2019-03-06T06:14:44.709Z,92.70
2019-03-06T06:18:49.528Z,92.60
2019-03-06T06:23:25.435Z,92.60
2019-03-06T06:27:30.686Z,92.60
2019-03-06T06:31:36.227Z,92.30
2019-03-06T06:35:41.051Z,92.40
2019-03-06T06:39:45.815Z,92.50
2019-03-06T06:43:50.651Z,92.50
2019-03-06T06:48:09.534Z,92.50
2019-03-06T06:52:50.540Z,92.50
2019-03-06T06:57:29.614Z,92.30
2019-03-06T07:02:19.430Z,92.10
2019-03-06T07:06:55.673Z,91.80
2019-03-06T07:11:13.028Z,91.60
2019-03-06T07:15:50.000Z,91.50
2019-03-06T07:20:20.556Z,91.20
2019-03-06T07:24:34.407Z,90.90
2019-03-06T07:28:50.526Z,91.00
2019-03-06T07:33:23.614Z,90.90
2019-03-06T07:37:42.999Z,90.70
2019-03-06T07:41:59.058Z,90.50
2019-03-06T07:46:16.568Z,90.40
2019-03-06T07:50:49.539Z,90.10
2019-03-06T07:55:12.144Z,89.80
2019-03-06T07:59:17.145Z,88.70
2019-03-06T08:03:36.247Z,87.40
2019-03-06T08:07:41.265Z,85.60
2019-03-06T08:11:55.561Z,85.90
2019-03-06T08:16:27.855Z,85.90
2019-03-06T08:20:44.440Z,84.40
2019-03-06T08:25:05.368Z,83.40
2019-03-06T08:29:10.976Z,82.80
2019-03-06T08:33:18.507Z,81.90
2019-03-06T08:37:24.192Z,81.10
2019-03-06T08:41:28.638Z,79.30
2019-03-06T08:45:44.187Z,76.90
2019-03-06T08:50:08.341Z,72.70
2019-03-06T08:54:20.030Z,59.90
2019-03-06T08:58:35.312Z,57.20
2019-03-06T09:02:58.017Z,53.10
2019-03-06T09:07:15.692Z,49.00
2019-03-06T09:11:29.493Z,53.40
2019-03-06T09:15:51.137Z,51.40
2019-03-06T09:20:07.949Z,52.60
2019-03-06T09:24:31.448Z,50.10
2019-03-06T09:29:01.085Z,48.60
2019-03-06T09:33:13.968Z,49.30
2019-03-06T09:37:46.541Z,48.70
2019-03-06T09:42:07.263Z,49.60
2019-03-06T09:46:20.811Z,50.30
2019-03-06T09:50:49.713Z,49.30
2019-03-06T09:55:17.878Z,48.10
2019-03-06T09:59:27.957Z,47.10
2019-03-06T10:03:54.711Z,50.40
2019-03-06T10:08:11.030Z,53.50
2019-03-06T10:12:25.100Z,54.30
2019-03-06T10:16:35.724Z,53.70
2019-03-06T10:20:40.693Z,51.60
2019-03-06T10:24:45.571Z,50.00
2019-03-06T10:28:50.446Z,50.20
2019-03-06T10:32:55.297Z,49.10
2019-03-06T10:37:00.460Z,48.90
2019-03-06T10:41:06.130Z,49.80
2019-03-06T10:45:10.896Z,48.90
2019-03-06T10:49:15.944Z,44.20
2019-03-06T10:53:20.465Z,42.80
2019-03-06T10:57:25.284Z,41.40
2019-03-06T11:01:30.683Z,40.90
2019-03-06T11:05:35.950Z,39.60
2019-03-06T11:09:40.815Z,39.50
2019-03-06T11:13:45.591Z,40.90
2019-03-06T11:17:50.632Z,42.10
2019-03-06T11:21:57.177Z,43.50
2019-03-06T11:26:02.029Z,44.40
2019-03-06T11:30:10.693Z,44.80
2019-03-06T11:34:17.207Z,43.70
2019-03-06T11:38:23.587Z,43.90
2019-03-06T11:42:28.067Z,44.00
2019-03-06T11:46:33.546Z,43.20
2019-03-06T11:50:43.476Z,43.70
2019-03-06T11:55:06.345Z,42.50
2019-03-06T11:59:09.708Z,41.90
2019-03-06T12:03:15.844Z,42.20
2019-03-06T12:07:26.694Z,41.80
2019-03-06T12:11:32.179Z,41.60
2019-03-06T12:15:37.296Z,41.90
2019-03-06T12:19:43.378Z,39.50
2019-03-06T12:23:48.547Z,38.90
2019-03-06T12:27:53.601Z,40.90
2019-03-06T12:31:58.011Z,43.10
2019-03-06T12:36:05.706Z,44.10
2019-03-06T12:40:14.711Z,45.00
2019-03-06T12:44:19.624Z,45.40
2019-03-06T12:48:24.602Z,45.20
2019-03-06T12:52:30.916Z,45.40
2019-03-06T12:56:35.949Z,46.20
2019-03-06T13:00:40.896Z,46.80
2019-03-06T13:04:45.645Z,46.80
2019-03-06T13:08:50.927Z,46.30
2019-03-06T13:12:56.363Z,46.40
2019-03-06T13:17:00.907Z,46.90
2019-03-06T13:21:06.669Z,47.20
2019-03-06T13:25:11.654Z,47.00
2019-03-06T13:29:16.829Z,47.00
2019-03-06T13:33:31.908Z,47.50
2019-03-06T13:37:36.750Z,47.20
2019-03-06T13:41:41.479Z,47.40
2019-03-06T13:45:46.427Z,48.10
2019-03-06T13:49:51.397Z,48.00
2019-03-06T13:53:57.261Z,47.50
2019-03-06T13:58:01.722Z,47.50
2019-03-06T14:02:07.626Z,48.20
2019-03-06T14:06:12.563Z,48.00
2019-03-06T14:10:19.095Z,47.90
2019-03-06T14:14:24.331Z,48.60
2019-03-06T14:18:28.919Z,49.10
2019-03-06T14:22:34.307Z,49.60
2019-03-06T14:26:38.775Z,50.00
2019-03-06T14:30:43.492Z,49.90
2019-03-06T14:34:48.827Z,50.40
2019-03-06T14:38:53.625Z,50.70
2019-03-06T14:42:59.582Z,51.00
2019-03-06T14:47:03.978Z,50.90
2019-03-06T14:51:09.466Z,51.20
2019-03-06T14:55:14.261Z,51.60
2019-03-06T14:59:19.321Z,51.70
2019-03-06T15:03:24.566Z,52.00
2019-03-06T15:07:29.308Z,52.60
2019-03-06T15:11:34.050Z,53.10
2019-03-06T15:15:38.961Z,53.50
2019-03-06T15:19:44.136Z,53.70
2019-03-06T15:23:49.229Z,54.20
2019-03-06T15:27:54.103Z,54.50
2019-03-06T15:31:59.443Z,54.70
2019-03-06T15:36:04.434Z,55.20
2019-03-06T15:40:12.543Z,55.80
2019-03-06T15:44:17.062Z,55.00
2019-03-06T15:48:23.463Z,55.20
2019-03-06T15:52:28.027Z,55.30
2019-03-06T15:56:32.766Z,55.30
2019-03-06T16:00:45.727Z,55.70
2019-03-06T16:04:43.392Z,56.10
2019-03-06T16:08:47.842Z,57.00
2019-03-06T16:12:53.115Z,57.80
2019-03-06T16:16:58.530Z,58.00
2019-03-06T16:21:03.348Z,58.00
2019-03-06T16:25:08.714Z,58.50
2019-03-06T16:29:24.263Z,58.80
2019-03-06T16:33:29.272Z,59.00
2019-03-06T16:37:35.795Z,59.20
2019-03-06T16:41:40.587Z,59.40
2019-03-06T16:45:45.471Z,59.70
2019-03-06T16:49:50.822Z,59.90
2019-03-06T16:53:57.044Z,60.20
2019-03-06T16:58:01.892Z,60.40
2019-03-06T17:02:09.894Z,60.80
2019-03-06T17:06:15.053Z,61.00
2019-03-06T17:10:20.104Z,61.20
2019-03-06T17:14:25.152Z,62.20
2019-03-06T17:18:30.366Z,61.70
2019-03-06T17:22:35.419Z,61.80
2019-03-06T17:26:41.018Z,62.00
2019-03-06T17:30:45.455Z,62.20
2019-03-06T17:34:50.136Z,62.40
2019-03-06T17:38:55.285Z,62.70
2019-03-06T17:43:00.194Z,62.80
2019-03-06T17:47:04.737Z,63.00
2019-03-06T17:51:11.475Z,62.90
2019-03-06T17:55:16.903Z,62.80
2019-03-06T17:59:21.417Z,63.00
2019-03-06T18:03:35.012Z,63.20
2019-03-06T18:07:39.575Z,63.20
2019-03-06T18:11:44.704Z,63.40
2019-03-06T18:15:49.308Z,63.60
2019-03-06T18:19:53.859Z,63.50
2019-03-06T18:23:59.010Z,63.60
2019-03-06T18:28:04.149Z,63.50
2019-03-06T18:32:13.520Z,63.50
2019-03-06T18:36:18.181Z,63.50
2019-03-06T18:40:22.765Z,63.40
2019-03-06T18:44:27.288Z,63.40
2019-03-06T18:48:31.803Z,63.00
2019-03-06T18:52:36.590Z,62.70
2019-03-06T18:56:42.786Z,62.80
2019-03-06T19:00:47.449Z,62.30
2019-03-06T19:04:52.607Z,62.00
2019-03-06T19:08:57.596Z,61.70
2019-03-06T19:13:02.622Z,61.30
2019-03-06T19:17:07.255Z,61.80
2019-03-06T19:21:12.332Z,61.10
2019-03-06T19:25:16.924Z,60.60
2019-03-06T19:29:22.209Z,60.70
2019-03-06T19:33:27.125Z,60.80
2019-03-06T19:37:32.644Z,60.70
2019-03-06T19:41:37.486Z,60.70
2019-03-06T19:45:42.017Z,61.00
2019-03-06T19:49:46.489Z,60.70
2019-03-06T19:53:51.596Z,61.10
2019-03-06T19:57:57.716Z,61.20
2019-03-06T20:02:02.229Z,61.20
2019-03-06T20:06:07.127Z,61.40
2019-03-06T20:10:12.012Z,61.00
2019-03-06T20:14:17.017Z,60.90
2019-03-06T20:18:21.775Z,60.90
2019-03-06T20:22:26.565Z,60.40
2019-03-06T20:26:31.117Z,60.40
2019-03-06T20:30:35.998Z,60.40
2019-03-06T20:34:41.367Z,60.40
2019-03-06T20:38:45.867Z,60.10
2019-03-06T20:42:50.523Z,60.40
2019-03-06T20:46:55.406Z,60.50
2019-03-06T20:51:00.797Z,60.60
2019-03-06T20:55:06.122Z,60.40
2019-03-06T20:59:10.813Z,60.70
2019-03-06T21:03:15.275Z,60.50
2019-03-06T21:07:20.506Z,60.60
2019-03-06T21:11:25.013Z,60.80
2019-03-06T21:15:29.517Z,61.10
2019-03-06T21:19:36.707Z,61.20
2019-03-06T21:23:41.679Z,61.60
2019-03-06T21:27:46.649Z,61.80
2019-03-06T21:31:51.307Z,61.90
2019-03-06T21:35:55.867Z,62.00
2019-03-06T21:40:01.058Z,62.30
2019-03-06T21:44:05.715Z,62.70
2019-03-06T21:48:10.149Z,62.70
2019-03-06T21:52:15.307Z,62.70
2019-03-06T21:56:20.224Z,63.00
2019-03-06T22:00:25.074Z,63.10
2019-03-06T22:04:29.935Z,63.00
2019-03-06T22:08:34.798Z,63.10
2019-03-06T22:12:39.979Z,63.20
2019-03-06T22:16:44.886Z,64.50
2019-03-06T22:20:50.632Z,63.70
2019-03-06T22:24:55.450Z,64.10
2019-03-06T22:29:00.492Z,64.20
2019-03-06T22:33:05.195Z,64.40
2019-03-06T22:37:09.775Z,64.40
2019-03-06T22:41:14.590Z,64.80
2019-03-06T22:45:19.272Z,65.00
2019-03-06T22:49:23.746Z,65.20
2019-03-06T22:53:28.511Z,65.40
2019-03-06T22:57:33.571Z,65.50
2019-03-06T23:01:39.433Z,65.50
2019-03-06T23:05:43.924Z,65.80
2019-03-06T23:09:48.410Z,65.90
2019-03-06T23:13:53.435Z,66.10
2019-03-06T23:17:58.557Z,66.20
2019-03-06T23:22:03.129Z,66.30
2019-03-06T23:26:07.621Z,66.50
2019-03-06T23:30:13.198Z,66.70
2019-03-06T23:34:18.201Z,67.00
2019-03-06T23:38:22.704Z,67.20
2019-03-06T23:42:28.058Z,67.60
2019-03-06T23:46:33.535Z,67.70
2019-03-06T23:50:38.346Z,68.10
2019-03-06T23:54:42.850Z,68.80
2019-03-06T23:58:48.046Z,69.80
